Time;durP1;ratioP1;P1;durP2;ratioP2;P2;SDS_P1;SDS_P2;PMS_P1;PMS_P2;Temp;Humidity;BMP_temperature;BMP_pressure;BME280_temperature;BME280_humidity;BME280_pressure;Samples;Min_cycle;Max_cycle;Signal;HPM_P1;HPM_P2
2024/01/04 00:01:27;;;;;;;4.63;4.00;;;6.60;99.90;;;;;;5095921;28;20173;-61
2024/01/04 00:03:52;;;;;;;6.63;4.30;;;6.70;99.90;;;;;;5095693;28;20208;-61
2024/01/04 00:06:20;;;;;;;5.27;3.90;;;6.70;99.90;;;;;;5095549;28;20205;-61
2024/01/04 00:08:46;;;;;;;4.50;4.10;;;6.60;99.90;;;;;;5094623;28;20193;-62
2024/01/04 00:11:12;;;;;;;4.13;3.83;;;6.60;99.90;;;;;;5095510;28;20212;-62
2024/01/04 00:13:38;;;;;;;5.33;4.30;;;6.60;99.90;;;;;;5095591;28;20180;-62
2024/01/04 00:16:09;;;;;;;4.13;3.93;;;6.60;99.90;;;;;;5094945;28;20181;-62
2024/01/04 00:18:35;;;;;;;8.67;4.60;;;6.70;99.90;;;;;;5095552;28;20536;-62
2024/01/04 00:21:02;;;;;;;4.83;4.50;;;6.70;99.90;;;;;;5095437;28;20191;-61
2024/01/04 00:23:28;;;;;;;5.70;4.50;;;6.70;99.90;;;;;;5095234;28;20193;-62
2024/01/04 00:25:54;;;;;;;4.80;4.40;;;6.70;99.90;;;;;;5095356;28;20217;-61
2024/01/04 00:28:20;;;;;;;5.77;4.40;;;6.70;99.90;;;;;;5095265;28;20189;-62
2024/01/04 00:30:46;;;;;;;4.70;4.30;;;6.80;99.90;;;;;;5095459;28;20573;-62
2024/01/04 00:33:11;;;;;;;6.40;4.37;;;6.70;99.90;;;;;;5095248;28;20185;-61
2024/01/04 00:35:37;;;;;;;5.67;4.60;;;6.70;99.90;;;;;;5095225;28;20184;-62
2024/01/04 00:38:03;;;;;;;4.93;4.57;;;6.80;99.90;;;;;;5094659;28;20204;-62
2024/01/04 00:40:29;;;;;;;5.60;4.70;;;6.80;99.90;;;;;;5094014;28;20201;-62
2024/01/04 00:42:55;;;;;;;5.23;4.73;;;6.80;99.90;;;;;;5094812;28;20200;-61
2024/01/04 00:45:21;;;;;;;5.37;4.97;;;6.80;99.90;;;;;;5095073;28;20193;-62
2024/01/04 00:47:47;;;;;;;5.33;4.90;;;6.90;99.90;;;;;;5094693;28;20808;-61
2024/01/04 00:50:13;;;;;;;5.33;4.90;;;6.90;99.90;;;;;;5094281;28;20295;-61
2024/01/04 00:52:38;;;;;;;5.60;5.10;;;6.90;99.90;;;;;;5094301;28;20256;-62
2024/01/04 00:55:04;;;;;;;5.60;5.10;;;7.00;99.90;;;;;;5095133;28;20307;-62
2024/01/04 00:57:30;;;;;;;5.53;5.10;;;6.90;99.90;;;;;;5094698;28;20713;-62
2024/01/04 00:59:56;;;;;;;6.30;5.70;;;7.00;99.90;;;;;;5094818;28;20181;-62
2024/01/04 01:02:22;;;;;;;8.33;5.23;;;7.00;99.90;;;;;;5094601;28;20264;-62
2024/01/04 01:04:47;;;;;;;6.23;5.67;;;7.00;99.90;;;;;;5094541;28;20264;-62
2024/01/04 01:07:13;;;;;;;6.73;5.43;;;7.00;99.90;;;;;;5094683;28;20236;-61
2024/01/04 01:09:39;;;;;;;5.80;5.10;;;7.00;99.90;;;;;;5094950;28;20200;-63
2024/01/04 01:12:05;;;;;;;8.97;5.80;;;7.00;99.90;;;;;;5094385;28;20250;-62
2024/01/04 01:14:31;;;;;;;7.80;5.77;;;7.00;99.90;;;;;;5094018;28;20598;-61
2024/01/04 01:16:57;;;;;;;6.23;5.70;;;7.00;99.90;;;;;;5094055;28;20242;-61
2024/01/04 01:19:23;;;;;;;7.67;6.00;;;7.10;99.90;;;;;;5094121;28;20180;-62
2024/01/04 01:21:49;;;;;;;6.70;5.93;;;7.10;99.90;;;;;;5094761;28;20185;-61
2024/01/04 01:24:15;;;;;;;6.57;5.93;;;7.10;99.90;;;;;;5093979;28;20599;-62
2024/01/04 01:26:42;;;;;;;7.57;6.33;;;7.10;99.90;;;;;;5093832;28;20193;-62
2024/01/04 01:29:08;;;;;;;7.10;6.40;;;7.10;99.90;;;;;;5093982;28;20165;-62
2024/01/04 01:31:40;;;;;;;7.80;6.40;;;7.10;99.90;;;;;;5093732;28;20196;-61
2024/01/04 01:34:07;;;;;;;8.27;6.83;;;7.20;99.90;;;;;;5094180;28;20205;-62
2024/01/04 01:36:32;;;;;;;11.77;6.30;;;7.10;99.90;;;;;;5093609;28;20212;-62
2024/01/04 01:38:58;;;;;;;8.30;6.70;;;7.20;99.90;;;;;;5093386;28;20271;-62
2024/01/04 01:41:24;;;;;;;12.50;7.87;;;7.20;99.90;;;;;;5093610;28;20240;-63
2024/01/04 01:43:49;;;;;;;9.87;8.37;;;7.20;99.90;;;;;;5093822;28;20638;-61
2024/01/04 01:46:15;;;;;;;10.67;7.87;;;7.20;99.90;;;;;;5093645;28;20209;-62
2024/01/04 01:48:41;;;;;;;12.90;8.33;;;7.20;99.90;;;;;;5075622;28;20189;-61
2024/01/04 01:51:08;;;;;;;9.83;8.00;;;7.20;99.90;;;;;;5093343;28;20273;-62
2024/01/04 01:53:34;;;;;;;12.17;8.40;;;7.20;99.90;;;;;;5093462;28;20231;-61
2024/01/04 01:56:00;;;;;;;10.23;8.07;;;7.20;99.90;;;;;;5093129;28;20311;-61
2024/01/04 01:58:26;;;;;;;10.30;9.20;;;7.20;99.90;;;;;;5093949;28;20273;-62
2024/01/04 02:00:52;;;;;;;11.20;8.37;;;7.20;99.90;;;;;;5093304;28;20196;-61
2024/01/04 02:03:19;;;;;;;11.97;8.83;;;7.30;99.90;;;;;;5093638;28;20673;-62
2024/01/04 02:05:45;;;;;;;12.47;8.47;;;7.20;99.90;;;;;;5094180;28;20633;-61
2024/01/04 02:08:10;;;;;;;9.63;8.10;;;7.20;99.90;;;;;;5093281;28;20205;-62
2024/01/04 02:10:36;;;;;;;14.30;8.73;;;7.20;99.90;;;;;;5093536;28;20220;-62
2024/01/04 02:13:02;;;;;;;10.70;7.40;;;7.20;99.90;;;;;;5093443;28;20188;-62
2024/01/04 02:15:28;;;;;;;10.67;8.40;;;7.20;99.90;;;;;;5093424;28;20184;-62
2024/01/04 02:17:54;;;;;;;7.87;7.00;;;7.20;99.90;;;;;;5093380;28;20196;-61
2024/01/04 02:20:19;;;;;;;10.90;7.07;;;7.20;99.90;;;;;;5093369;28;20242;-61
2024/01/04 02:22:45;;;;;;;8.57;6.17;;;7.20;99.90;;;;;;5093100;28;20185;-62
2024/01/04 02:25:11;;;;;;;7.47;6.70;;;7.20;99.90;;;;;;5093563;28;20218;-61
2024/01/04 02:27:37;;;;;;;12.00;6.93;;;7.20;99.90;;;;;;5093557;28;20216;-62
2024/01/04 02:30:04;;;;;;;11.13;6.63;;;7.20;99.90;;;;;;5093691;28;20212;-61
2024/01/04 02:32:30;;;;;;;7.03;6.30;;;7.20;99.90;;;;;;5093316;28;20173;-61
2024/01/04 02:34:55;;;;;;;6.83;6.13;;;7.10;99.90;;;;;;5093595;28;20268;-60
2024/01/04 02:37:21;;;;;;;7.43;5.97;;;7.20;99.90;;;;;;5093851;28;20297;-61
2024/01/04 02:39:47;;;;;;;7.17;5.73;;;7.10;99.90;;;;;;5093325;28;20208;-61
2024/01/04 02:42:13;;;;;;;7.73;5.60;;;7.10;99.90;;;;;;5093310;28;20677;-62
2024/01/04 02:44:38;;;;;;;6.60;5.87;;;7.10;99.90;;;;;;5093278;28;20173;-62
2024/01/04 02:47:04;;;;;;;7.97;5.90;;;7.10;99.90;;;;;;5093414;28;20204;-61
2024/01/04 02:49:30;;;;;;;6.50;5.93;;;7.10;99.90;;;;;;5092690;28;20287;-61
2024/01/04 02:51:56;;;;;;;5.87;5.37;;;7.10;99.90;;;;;;5093191;28;20638;-62
2024/01/04 02:54:21;;;;;;;6.27;5.63;;;7.10;99.90;;;;;;5092912;28;20181;-61
2024/01/04 02:56:47;;;;;;;8.80;6.40;;;7.10;99.90;;;;;;5093119;28;20617;-62
2024/01/04 02:59:13;;;;;;;9.13;6.77;;;7.10;99.90;;;;;;5093284;28;20186;-61
2024/01/04 03:01:41;;;;;;;10.10;7.03;;;7.10;99.90;;;;;;5093258;28;20247;-62
2024/01/04 03:04:07;;;;;;;7.37;6.67;;;7.10;99.90;;;;;;5096649;28;20595;-61
2024/01/04 03:06:33;;;;;;;11.83;7.80;;;7.10;99.90;;;;;;5096937;28;20208;-62
2024/01/04 03:08:59;;;;;;;9.93;7.20;;;7.10;99.90;;;;;;5096765;28;20193;-62
2024/01/04 03:11:25;;;;;;;10.80;7.87;;;7.10;99.90;;;;;;5096530;28;20738;-62
2024/01/04 03:13:51;;;;;;;9.60;7.37;;;7.10;99.90;;;;;;5096591;28;20610;-62
2024/01/04 03:16:19;;;;;;;9.10;7.40;;;7.10;99.90;;;;;;5096553;28;20235;-62
2024/01/04 03:18:45;;;;;;;11.17;7.87;;;7.10;99.90;;;;;;5096723;28;20686;-62
2024/01/04 03:21:11;;;;;;;8.40;7.50;;;7.10;99.90;;;;;;5096797;28;20218;-62
2024/01/04 03:23:36;;;;;;;11.47;7.90;;;7.00;99.90;;;;;;5096185;28;20189;-62
2024/01/04 03:26:02;;;;;;;9.80;7.10;;;7.00;99.90;;;;;;5096454;28;20184;-61
2024/01/04 03:28:28;;;;;;;8.60;7.50;;;7.00;99.90;;;;;;5096499;28;20192;-62
2024/01/04 03:30:54;;;;;;;8.47;7.63;;;7.00;99.90;;;;;;5096211;28;20213;-62
2024/01/04 03:33:20;;;;;;;12.17;8.20;;;7.00;99.90;;;;;;5096495;28;20181;-61
2024/01/04 03:35:45;;;;;;;7.90;7.10;;;7.00;99.90;;;;;;5077619;28;20849;-62
2024/01/04 03:38:11;;;;;;;9.17;7.17;;;7.00;99.90;;;;;;5096037;28;20211;-62
2024/01/04 03:40:37;;;;;;;10.60;8.10;;;7.00;99.90;;;;;;5095996;28;20225;-62
2024/01/04 03:43:04;;;;;;;9.07;7.93;;;7.00;99.90;;;;;;5096738;28;20216;-61
2024/01/04 03:45:33;;;;;;;11.13;9.63;;;6.90;99.90;;;;;;5095850;28;20187;-62
2024/01/04 03:47:59;;;;;;;15.63;9.77;;;6.90;99.90;;;;;;5095921;28;20201;-61
2024/01/04 03:50:25;;;;;;;12.67;10.07;;;6.90;99.90;;;;;;5095928;28;20225;-62
2024/01/04 03:52:51;;;;;;;17.17;11.50;;;6.90;99.90;;;;;;5096216;28;20207;-62
2024/01/04 03:55:17;;;;;;;16.30;10.90;;;7.00;99.90;;;;;;5096058;28;20189;-62
2024/01/04 03:57:44;;;;;;;18.57;11.37;;;6.90;99.90;;;;;;5095236;28;20225;-61
2024/01/04 04:00:12;;;;;;;18.00;12.50;;;7.00;99.90;;;;;;5095684;28;20213;-62
2024/01/04 04:02:38;;;;;;;18.47;12.80;;;6.90;99.90;;;;;;5095573;28;20612;-62
2024/01/04 04:05:04;;;;;;;17.60;11.87;;;6.90;99.90;;;;;;5096018;28;20606;-62
2024/01/04 04:07:30;;;;;;;17.80;12.20;;;6.90;99.90;;;;;;5095651;28;20197;-62
2024/01/04 04:09:56;;;;;;;23.23;12.30;;;6.90;99.90;;;;;;5095325;28;20209;-60
2024/01/04 04:12:22;;;;;;;19.40;12.43;;;6.90;99.90;;;;;;5095913;28;20585;-62
2024/01/04 04:14:49;;;;;;;15.73;12.00;;;6.90;99.90;;;;;;5095445;28;20220;-62
2024/01/04 04:17:18;;;;;;;22.53;11.83;;;6.90;99.90;;;;;;5095252;28;20215;-61
2024/01/04 04:19:44;;;;;;;16.03;11.10;;;6.90;99.90;;;;;;5095488;28;20185;-62
2024/01/04 04:22:09;;;;;;;18.90;11.87;;;6.90;99.90;;;;;;5095489;28;20177;-61
2024/01/04 04:24:35;;;;;;;14.43;9.93;;;6.80;99.90;;;;;;5095236;28;20243;-62
2024/01/04 04:27:01;;;;;;;13.20;9.73;;;6.90;99.90;;;;;;5095672;28;20201;-62
2024/01/04 04:29:27;;;;;;;17.97;9.17;;;6.90;99.90;;;;;;5095384;28;20177;-62
2024/01/04 04:31:54;;;;;;;12.23;8.50;;;6.90;99.90;;;;;;5095759;28;20188;-61
2024/01/04 04:34:20;;;;;;;9.13;7.60;;;6.80;99.90;;;;;;5095314;28;20602;-61
2024/01/04 04:36:46;;;;;;;12.03;7.57;;;6.80;99.90;;;;;;5094981;28;20201;-61
2024/01/04 04:39:11;;;;;;;8.90;6.90;;;6.80;99.90;;;;;;5095068;28;20187;-62
2024/01/04 04:41:39;;;;;;;11.70;6.33;;;6.80;99.90;;;;;;5095287;28;20197;-61
2024/01/04 04:44:05;;;;;;;13.30;7.10;;;6.70;99.90;;;;;;5094969;28;20181;-62
2024/01/04 04:46:31;;;;;;;9.30;5.87;;;6.70;99.90;;;;;;5095561;28;20549;-62
2024/01/04 04:48:58;;;;;;;10.27;6.50;;;6.70;99.90;;;;;;5094913;28;20656;-62
2024/01/04 04:51:25;;;;;;;5.87;5.20;;;6.70;99.90;;;;;;5094734;28;20205;-62
2024/01/04 04:53:54;;;;;;;5.60;5.00;;;6.60;99.90;;;;;;5093939;28;20180;-62
2024/01/04 04:56:20;;;;;;;6.00;5.10;;;6.60;99.90;;;;;;5094352;28;20208;-62
2024/01/04 04:58:46;;;;;;;5.77;5.27;;;6.50;99.90;;;;;;5094550;28;20299;-62
2024/01/04 05:01:13;;;;;;;5.83;5.00;;;6.60;99.90;;;;;;5094566;28;20185;-61
2024/01/04 05:03:39;;;;;;;5.00;4.60;;;6.50;99.90;;;;;;5094660;28;20173;-62
2024/01/04 05:06:07;;;;;;;4.97;4.57;;;6.50;99.90;;;;;;5094515;28;20181;-62
2024/01/04 05:08:33;;;;;;;6.50;4.47;;;6.50;99.90;;;;;;5094086;28;20187;-63
2024/01/04 05:10:58;;;;;;;5.20;4.70;;;6.50;99.90;;;;;;5094381;28;20654;-63
2024/01/04 05:13:24;;;;;;;4.83;4.40;;;6.50;99.90;;;;;;5094645;28;20518;-61
2024/01/04 05:15:50;;;;;;;6.50;4.87;;;6.50;99.90;;;;;;5094320;28;20183;-61
2024/01/04 05:18:16;;;;;;;5.20;4.80;;;6.60;99.90;;;;;;5094464;28;20201;-62
2024/01/04 05:20:41;;;;;;;5.37;4.87;;;6.60;99.90;;;;;;5094724;28;20190;-62
2024/01/04 05:23:07;;;;;;;6.70;4.93;;;6.60;99.90;;;;;;5094157;28;20648;-62
2024/01/04 05:25:36;;;;;;;6.53;4.77;;;6.60;99.90;;;;;;5094136;28;20634;-61
2024/01/04 05:28:02;;;;;;;5.70;5.20;;;6.60;99.90;;;;;;5094219;28;20201;-61
2024/01/04 05:30:28;;;;;;;8.10;4.77;;;6.50;99.90;;;;;;5094182;28;20215;-61
2024/01/04 05:32:54;;;;;;;5.77;5.07;;;6.50;99.90;;;;;;5094313;28;20192;-61
2024/01/04 05:35:20;;;;;;;6.77;4.60;;;6.40;99.90;;;;;;5094112;28;20185;-62
2024/01/04 05:37:46;;;;;;;4.83;4.53;;;6.40;99.90;;;;;;5093737;28;20196;-61
2024/01/04 05:40:11;;;;;;;5.47;4.80;;;6.40;99.90;;;;;;5093860;28;20181;-61
2024/01/04 05:42:37;;;;;;;5.23;4.67;;;6.40;99.90;;;;;;5093947;28;20272;-62
2024/01/04 05:45:04;;;;;;;5.23;4.70;;;6.40;99.90;;;;;;5094069;28;20189;-61
2024/01/04 05:47:30;;;;;;;5.40;4.90;;;6.40;99.90;;;;;;5093930;28;20197;-61
2024/01/04 05:49:56;;;;;;;6.13;4.73;;;6.40;99.90;;;;;;5094057;28;20263;-62
2024/01/04 05:52:22;;;;;;;8.23;5.13;;;6.40;99.90;;;;;;5094015;28;20177;-61
2024/01/04 05:54:48;;;;;;;6.40;5.00;;;6.40;99.90;;;;;;5093595;28;20178;-61
2024/01/04 05:57:14;;;;;;;6.50;4.90;;;6.40;99.90;;;;;;5094056;28;20281;-61
2024/01/04 05:59:40;;;;;;;9.20;5.17;;;6.30;99.90;;;;;;5094186;28;20653;-61
2024/01/04 06:02:05;;;;;;;7.13;5.27;;;6.30;99.90;;;;;;5094056;28;20208;-61
2024/01/04 06:04:31;;;;;;;6.43;5.00;;;6.30;99.90;;;;;;5094361;28;20199;-61
2024/01/04 06:06:57;;;;;;;6.50;5.23;;;6.30;99.90;;;;;;5093764;28;20685;-61
2024/01/04 06:09:23;;;;;;;6.67;5.40;;;6.20;99.90;;;;;;5093492;28;20188;-62
2024/01/04 06:11:50;;;;;;;7.70;5.30;;;6.30;99.90;;;;;;5093712;28;20222;-61
2024/01/04 06:14:16;;;;;;;5.50;4.90;;;6.20;99.90;;;;;;5093546;28;20177;-62
2024/01/04 06:16:42;;;;;;;5.00;4.60;;;6.20;99.90;;;;;;5093188;28;20207;-62
2024/01/04 06:19:08;;;;;;;6.57;5.17;;;6.20;99.90;;;;;;5093527;28;20197;-61
2024/01/04 06:21:33;;;;;;;5.57;5.07;;;6.10;99.90;;;;;;5093098;28;20181;-62
2024/01/04 06:23:59;;;;;;;6.30;4.87;;;6.20;99.90;;;;;;5093166;28;20650;-62
2024/01/04 06:26:25;;;;;;;5.67;4.80;;;6.10;99.90;;;;;;5093362;28;20279;-62
2024/01/04 06:28:51;;;;;;;5.50;5.00;;;6.10;99.90;;;;;;5093622;28;20170;-62
2024/01/04 06:31:17;;;;;;;6.63;5.20;;;6.10;99.90;;;;;;5093403;28;20196;-62
2024/01/04 06:33:42;;;;;;;7.07;5.30;;;6.10;99.90;;;;;;5093434;28;20676;-62
2024/01/04 06:36:08;;;;;;;5.90;5.30;;;6.10;99.90;;;;;;5093152;28;20311;-62
2024/01/04 06:38:37;;;;;;;5.47;4.97;;;6.10;99.90;;;;;;5095684;28;20184;-62
2024/01/04 06:41:03;;;;;;;5.53;4.50;;;6.10;99.90;;;;;;5097312;28;20189;-62
2024/01/04 06:43:32;;;;;;;5.67;4.97;;;6.20;99.90;;;;;;5096648;28;20177;-62
2024/01/04 06:45:58;;;;;;;7.53;5.00;;;6.10;99.90;;;;;;5096750;28;20179;-62
2024/01/04 06:48:24;;;;;;;6.83;5.47;;;6.20;99.90;;;;;;5096955;28;20181;-62
2024/01/04 06:50:50;;;;;;;5.60;5.07;;;6.10;99.90;;;;;;5096813;28;20205;-62
2024/01/04 06:53:16;;;;;;;9.13;5.23;;;6.10;99.90;;;;;;5096950;28;20177;-62
2024/01/04 06:55:43;;;;;;;7.63;6.20;;;6.20;99.90;;;;;;5097042;28;20538;-62
2024/01/04 06:58:09;;;;;;;6.00;5.40;;;6.20;99.90;;;;;;5077822;28;20601;-62
2024/01/04 07:00:36;;;;;;;8.37;6.07;;;6.20;99.90;;;;;;5096576;28;20189;-62
2024/01/04 07:03:02;;;;;;;9.10;6.30;;;6.20;99.90;;;;;;5097178;28;20193;-62
2024/01/04 07:05:28;;;;;;;9.63;6.03;;;6.20;99.90;;;;;;5096659;28;20173;-62
2024/01/04 07:07:54;;;;;;;9.77;6.90;;;6.20;99.90;;;;;;5096574;28;20204;-62
2024/01/04 07:10:20;;;;;;;8.67;7.13;;;6.30;99.90;;;;;;5096245;28;20201;-62
2024/01/04 07:12:46;;;;;;;7.77;6.97;;;6.20;99.90;;;;;;5097219;28;20161;-61
2024/01/04 07:15:13;;;;;;;7.33;6.50;;;6.20;99.90;;;;;;5096462;28;20184;-61
2024/01/04 07:17:39;;;;;;;8.80;6.50;;;6.20;99.90;;;;;;5096677;28;20684;-62
2024/01/04 07:20:06;;;;;;;9.23;6.50;;;6.20;99.90;;;;;;5096660;28;20183;-63
2024/01/04 07:22:33;;;;;;;6.83;6.23;;;6.20;99.90;;;;;;5078614;28;20555;-62
2024/01/04 07:24:59;;;;;;;7.10;6.40;;;6.20;99.90;;;;;;5095983;28;20188;-62
2024/01/04 07:27:27;;;;;;;8.33;6.53;;;6.20;99.90;;;;;;5096395;28;20213;-62
2024/01/04 07:29:54;;;;;;;8.00;7.00;;;6.20;99.90;;;;;;5096536;28;20256;-62
2024/01/04 07:32:20;;;;;;;9.07;6.33;;;6.20;99.90;;;;;;5096189;28;20177;-62
2024/01/04 07:34:46;;;;;;;8.17;6.57;;;6.20;99.90;;;;;;5095720;28;20188;-62
2024/01/04 07:37:12;;;;;;;7.30;6.07;;;6.20;99.90;;;;;;5077637;28;20618;-63
2024/01/04 07:39:42;;;;;;;7.23;6.03;;;6.30;99.90;;;;;;5095264;28;20182;-62
2024/01/04 07:42:09;;;;;;;7.17;5.93;;;6.30;99.90;;;;;;5095559;28;20181;-62
2024/01/04 07:44:35;;;;;;;7.00;6.30;;;6.40;99.90;;;;;;5095335;28;20177;-62
2024/01/04 07:47:01;;;;;;;7.70;6.60;;;6.30;99.90;;;;;;5077897;28;20754;-62
2024/01/04 07:49:26;;;;;;;7.43;6.73;;;6.30;99.90;;;;;;5095040;28;20199;-62
2024/01/04 07:51:52;;;;;;;7.07;6.37;;;6.40;99.90;;;;;;5095767;28;20646;-62
2024/01/04 07:54:19;;;;;;;7.80;6.80;;;6.30;99.90;;;;;;5095776;28;20173;-62
2024/01/04 07:56:45;;;;;;;7.30;6.60;;;6.30;99.90;;;;;;5095732;28;20209;-62
2024/01/04 07:59:11;;;;;;;9.80;7.10;;;6.30;99.90;;;;;;5095923;28;20634;-62
2024/01/04 08:01:36;;;;;;;10.93;8.70;;;6.20;99.90;;;;;;5095881;28;20253;-62
2024/01/04 08:04:03;;;;;;;14.17;8.90;;;6.20;99.90;;;;;;5095746;28;20549;-62
2024/01/04 08:06:30;;;;;;;13.50;9.30;;;6.20;99.90;;;;;;5077554;28;20201;-62
2024/01/04 08:08:56;;;;;;;13.20;10.40;;;6.30;99.90;;;;;;5095340;28;20679;-62
2024/01/04 08:11:23;;;;;;;13.43;10.13;;;6.30;99.90;;;;;;5095547;28;20213;-62
2024/01/04 08:13:52;;;;;;;16.33;11.67;;;6.30;99.90;;;;;;5095913;28;20207;-62
2024/01/04 08:16:18;;;;;;;16.40;11.70;;;6.40;99.90;;;;;;5095224;28;20618;-62
2024/01/04 08:18:44;;;;;;;19.53;13.67;;;6.50;99.90;;;;;;5095303;28;20177;-62
2024/01/04 08:21:10;;;;;;;16.77;12.30;;;6.50;99.90;;;;;;5094840;28;20184;-62
2024/01/04 08:23:40;;;;;;;17.57;11.90;;;6.50;99.90;;;;;;5094786;28;20662;-62
2024/01/04 08:26:06;;;;;;;15.27;11.33;;;6.60;99.90;;;;;;5095479;28;20330;-62
2024/01/04 08:28:32;;;;;;;16.37;11.60;;;6.60;99.90;;;;;;5094983;28;20678;-62
2024/01/04 08:30:58;;;;;;;14.80;11.57;;;6.60;99.90;;;;;;5094804;28;20216;-63
2024/01/04 08:33:23;;;;;;;13.73;11.10;;;6.60;99.90;;;;;;5094977;28;20207;-62
2024/01/04 08:35:49;;;;;;;15.43;11.77;;;6.60;99.90;;;;;;5094974;28;20294;-62
2024/01/04 08:38:15;;;;;;;22.57;14.90;;;6.60;99.90;;;;;;5094648;28;20242;-63
2024/01/04 08:40:42;;;;;;;20.63;14.60;;;6.70;99.90;;;;;;5094229;28;20197;-63
2024/01/04 08:43:07;;;;;;;23.60;15.43;;;6.70;99.90;;;;;;5095410;28;20199;-62
2024/01/04 08:45:33;;;;;;;24.73;14.40;;;6.80;99.90;;;;;;5077262;28;20181;-63
2024/01/04 08:47:59;;;;;;;18.50;14.13;;;6.80;99.90;;;;;;5095078;28;20254;-62
2024/01/04 08:50:25;;;;;;;10.73;8.57;;;6.80;99.90;;;;;;5094864;28;20205;-62
2024/01/04 08:52:51;;;;;;;12.97;9.40;;;6.70;99.90;;;;;;5094908;28;20176;-63
2024/01/04 08:55:19;;;;;;;12.33;8.60;;;6.60;99.90;;;;;;5094526;28;20185;-62
2024/01/04 08:57:46;;;;;;;9.97;7.70;;;6.50;99.90;;;;;;5094254;28;20209;-61
2024/01/04 09:00:12;;;;;;;9.00;7.23;;;6.50;99.90;;;;;;5093783;28;20184;-62
2024/01/04 09:02:38;;;;;;;8.60;7.70;;;6.50;99.90;;;;;;5094237;28;20259;-61
2024/01/04 09:05:04;;;;;;;9.57;7.20;;;6.50;99.90;;;;;;5094487;28;20177;-61
2024/01/04 09:07:30;;;;;;;10.50;8.13;;;6.50;99.90;;;;;;5093904;28;20201;-64
2024/01/04 09:09:56;;;;;;;10.23;8.60;;;6.50;99.90;;;;;;5094065;28;20205;-62
2024/01/04 09:12:22;;;;;;;14.50;10.33;;;6.60;99.90;;;;;;5094354;28;20198;-61
2024/01/04 09:14:47;;;;;;;10.63;9.47;;;6.50;99.90;;;;;;5094587;28;20169;-62
2024/01/04 09:17:13;;;;;;;11.77;9.77;;;6.50;99.90;;;;;;5094220;28;20204;-62
2024/01/04 09:19:40;;;;;;;11.00;9.03;;;6.60;99.90;;;;;;5076884;28;20264;-62
2024/01/04 09:22:07;;;;;;;10.23;9.10;;;6.60;99.90;;;;;;5094415;28;20181;-62
2024/01/04 09:24:33;;;;;;;9.73;8.73;;;6.60;99.90;;;;;;5093775;28;20195;-62
2024/01/04 09:26:59;;;;;;;13.27;8.67;;;6.60;99.90;;;;;;5094027;28;20280;-62
2024/01/04 09:29:24;;;;;;;10.17;9.07;;;6.70;99.90;;;;;;5093832;28;20622;-62
2024/01/04 09:31:50;;;;;;;10.27;8.57;;;6.70;99.90;;;;;;5093867;28;20609;-62
2024/01/04 09:34:16;;;;;;;10.50;9.40;;;6.70;99.90;;;;;;5075959;28;20192;-62
2024/01/04 09:36:42;;;;;;;11.30;8.67;;;6.70;99.90;;;;;;5093975;28;20189;-62
2024/01/04 09:39:07;;;;;;;11.47;7.60;;;6.70;99.90;;;;;;5093892;28;20177;-61
2024/01/04 09:41:35;;;;;;;10.80;7.83;;;6.60;99.90;;;;;;5093846;28;20189;-61
2024/01/04 09:44:06;;;;;;;8.60;7.77;;;6.60;99.90;;;;;;5093313;28;20181;-64
2024/01/04 09:46:39;;;;;;;13.67;9.20;;;6.70;99.90;;;;;;5076047;28;20201;-62
2024/01/04 09:49:06;;;;;;;14.33;9.73;;;6.70;99.90;;;;;;5076254;28;20188;-62
2024/01/04 09:51:37;;;;;;;11.07;9.30;;;6.70;99.90;;;;;;5093866;28;20358;-62
2024/01/04 09:54:09;;;;;;;16.03;11.33;;;6.70;99.90;;;;;;5093779;28;20525;-63
2024/01/04 09:56:42;;;;;;;15.77;10.90;;;6.70;99.90;;;;;;5094075;28;20278;-62
2024/01/04 09:59:08;;;;;;;12.97;10.93;;;6.80;99.90;;;;;;5093576;28;20187;-62
2024/01/04 10:01:36;;;;;;;14.50;10.50;;;6.90;99.90;;;;;;5093455;28;20173;-61
2024/01/04 10:04:11;;;;;;;11.40;9.90;;;6.90;99.90;;;;;;5094333;28;20177;-63
2024/01/04 10:06:39;;;;;;;12.80;9.33;;;6.90;99.90;;;;;;5093805;28;20266;-62
2024/01/04 10:09:28;;;;;;;15.07;8.63;;;7.00;99.90;;;;;;5093371;28;20185;-62
2024/01/04 10:12:05;;;;;;;12.33;9.07;;;7.00;99.90;;;;;;5095401;28;20669;-62
2024/01/04 10:14:32;;;;;;;10.80;9.23;;;7.00;99.90;;;;;;5097866;28;20533;-62
2024/01/04 10:16:59;;;;;;;13.57;10.13;;;7.00;99.90;;;;;;5097202;28;20288;-62
2024/01/04 10:19:25;;;;;;;12.83;10.10;;;7.00;99.90;;;;;;5097235;28;20205;-62
2024/01/04 10:21:51;;;;;;;16.67;9.37;;;7.10;99.90;;;;;;5097837;28;20177;-62
2024/01/04 10:24:25;;;;;;;14.03;11.33;;;7.10;99.90;;;;;;5096963;28;20535;-62
2024/01/04 10:26:58;;;;;;;15.53;11.17;;;7.00;99.90;;;;;;5097527;28;20291;-61
2024/01/04 10:29:25;;;;;;;20.03;13.83;;;7.10;99.90;;;;;;5097197;28;20169;-63
2024/01/04 10:31:58;;;;;;;19.73;12.43;;;7.10;99.90;;;;;;5097451;28;20564;-62
2024/01/04 10:34:25;;;;;;;21.60;14.97;;;7.10;99.90;;;;;;5097383;28;20224;-62
2024/01/04 10:36:51;;;;;;;21.90;16.33;;;7.20;99.90;;;;;;5097140;28;20203;-61
2024/01/04 10:39:20;;;;;;;25.20;15.70;;;7.10;99.90;;;;;;5097073;28;20181;-62
2024/01/04 10:42:07;;;;;;;19.77;16.67;;;7.20;99.90;;;;;;5097448;28;20189;-62
2024/01/04 10:44:34;;;;;;;21.47;16.23;;;7.20;99.90;;;;;;5097478;28;20162;-61
2024/01/04 10:47:05;;;;;;;26.53;17.20;;;7.20;99.90;;;;;;5097106;28;20204;-62
2024/01/04 10:49:31;;;;;;;24.33;16.27;;;7.20;99.90;;;;;;5097210;28;20295;-62
2024/01/04 10:51:58;;;;;;;25.90;17.10;;;7.30;99.90;;;;;;5097078;28;20276;-62
2024/01/04 10:54:32;;;;;;;26.63;17.13;;;7.20;99.90;;;;;;5096535;28;20672;-62
2024/01/04 10:56:59;;;;;;;21.33;16.63;;;7.30;99.90;;;;;;5096491;28;20266;-62
2024/01/04 10:59:27;;;;;;;19.60;13.80;;;7.30;99.90;;;;;;5096445;28;20173;-62
2024/01/04 11:01:54;;;;;;;22.37;13.70;;;7.30;99.90;;;;;;5096463;28;20188;-62
2024/01/04 11:04:22;;;;;;;17.27;13.17;;;7.30;99.90;;;;;;5096239;28;20692;-62
2024/01/04 11:06:49;;;;;;;17.73;13.23;;;7.30;99.90;;;;;;5097012;28;20665;-62
2024/01/04 11:09:17;;;;;;;15.87;13.03;;;7.30;99.90;;;;;;5096892;28;20191;-62
2024/01/04 11:11:45;;;;;;;15.97;11.10;;;7.30;99.90;;;;;;5096696;28;20208;-62
2024/01/04 11:14:10;;;;;;;14.93;9.93;;;7.30;99.90;;;;;;5096521;28;20184;-62
2024/01/04 11:16:45;;;;;;;15.17;11.13;;;7.30;99.90;;;;;;5096560;28;20197;-62
2024/01/04 11:19:29;;;;;;;14.63;9.90;;;7.30;99.90;;;;;;5096518;28;20188;-63
2024/01/04 11:22:22;;;;;;;13.13;9.67;;;7.30;99.90;;;;;;5096518;28;20173;-64
2024/01/04 11:25:06;;;;;;;10.53;9.30;;;7.30;99.90;;;;;;5095243;28;20650;-61
2024/01/04 11:27:32;;;;;;;13.57;9.27;;;7.20;99.90;;;;;;5096767;28;20209;-62
2024/01/04 11:29:59;;;;;;;12.27;10.60;;;7.30;99.90;;;;;;5096288;28;20288;-62
2024/01/04 11:32:26;;;;;;;10.63;9.53;;;7.30;99.90;;;;;;5096378;28;20704;-63
2024/01/04 11:34:51;;;;;;;15.60;10.73;;;7.30;99.90;;;;;;5078544;28;20554;-62
2024/01/04 11:37:22;;;;;;;11.77;9.97;;;7.30;99.90;;;;;;5096087;28;20205;-61
2024/01/04 11:39:57;;;;;;;11.77;9.83;;;7.20;99.90;;;;;;5095994;28;20158;-61
2024/01/04 11:42:37;;;;;;;17.97;10.53;;;7.10;99.90;;;;;;5095766;28;20165;-62
2024/01/04 11:45:05;;;;;;;12.00;9.87;;;7.10;99.90;;;;;;5095901;28;20178;-62
2024/01/04 11:47:41;;;;;;;11.77;9.57;;;7.10;99.90;;;;;;5096208;28;20282;-61
2024/01/04 11:50:18;;;;;;;12.43;9.47;;;7.10;99.90;;;;;;5095845;28;20205;-62
2024/01/04 11:52:46;;;;;;;11.07;9.77;;;7.10;99.90;;;;;;5095807;28;20176;-62
2024/01/04 11:55:26;;;;;;;10.33;9.30;;;7.20;99.90;;;;;;5095619;28;20220;-62
2024/01/04 11:58:09;;;;;;;11.63;8.97;;;7.10;99.90;;;;;;5095694;28;20700;-62
2024/01/04 12:00:37;;;;;;;13.50;9.60;;;7.10;99.90;;;;;;5095700;28;20198;-62
2024/01/04 12:03:13;;;;;;;12.70;9.27;;;7.10;99.90;;;;;;5095844;28;20193;-61
2024/01/04 12:05:46;;;;;;;14.97;10.33;;;7.00;99.90;;;;;;5095656;28;20181;-61
2024/01/04 12:08:24;;;;;;;16.10;10.57;;;7.00;99.90;;;;;;5095764;28;20239;-62
2024/01/04 12:10:55;;;;;;;16.83;11.63;;;7.00;99.90;;;;;;5095061;28;20219;-62
2024/01/04 12:13:21;;;;;;;14.20;11.80;;;7.00;99.90;;;;;;5095722;28;20173;-62
2024/01/04 12:15:47;;;;;;;13.80;11.00;;;7.10;99.90;;;;;;5095227;28;20187;-62
2024/01/04 12:18:13;;;;;;;15.50;11.17;;;7.10;99.90;;;;;;5095343;28;20201;-63
2024/01/04 12:20:39;;;;;;;18.23;11.73;;;7.10;99.90;;;;;;5095373;28;20658;-62
2024/01/04 12:23:06;;;;;;;17.13;11.77;;;7.10;99.90;;;;;;5095395;28;20188;-61
2024/01/04 12:25:36;;;;;;;12.83;10.70;;;7.20;99.90;;;;;;5094904;28;20295;-63
2024/01/04 12:28:02;;;;;;;12.40;11.03;;;7.20;99.90;;;;;;5095269;28;20204;-62
2024/01/04 12:30:30;;;;;;;15.97;11.43;;;7.20;99.90;;;;;;5095004;28;20212;-61
2024/01/04 12:32:57;;;;;;;12.77;11.30;;;7.20;99.90;;;;;;5095583;28;20220;-62
2024/01/04 12:35:22;;;;;;;12.50;11.10;;;7.20;99.90;;;;;;5095071;28;20181;-62
2024/01/04 12:38:02;;;;;;;15.63;11.07;;;7.20;99.90;;;;;;5095151;28;20219;-61
2024/01/04 12:40:37;;;;;;;16.27;10.73;;;7.20;99.90;;;;;;5094716;28;20228;-61
2024/01/04 12:43:03;;;;;;;15.00;10.63;;;7.20;99.90;;;;;;5095324;28;20161;-61
2024/01/04 12:45:29;;;;;;;14.03;10.47;;;7.20;99.90;;;;;;5094757;28;20204;-61
2024/01/04 12:48:05;;;;;;;11.87;10.10;;;7.20;99.90;;;;;;5094308;28;20205;-62
2024/01/04 12:50:32;;;;;;;9.57;8.47;;;7.30;99.90;;;;;;5094053;28;20716;-61